sensor_id;sensor_type;location;lat;lon;timestamp;P1;durP1;ratioP1;P2;durP2;ratioP2
33266;SDS011;19638;49.080;11.896;2022-07-22T00:00:34;26.75;;;16.40;;
33266;SDS011;19638;49.080;11.896;2022-07-22T00:04:38;22.02;;;16.40;;
33266;SDS011;19638;49.080;11.896;2022-07-22T00:08:41;28.48;;;16.52;;
33266;SDS011;19638;49.080;11.896;2022-07-22T00:12:44;27.95;;;16.63;;
33266;SDS011;19638;49.080;11.896;2022-07-22T00:16:49;25.17;;;15.68;;
33266;SDS011;19638;49.080;11.896;2022-07-22T00:20:52;23.38;;;17.00;;
33266;SDS011;19638;49.080;11.896;2022-07-22T00:24:55;24.02;;;16.23;;
33266;SDS011;19638;49.080;11.896;2022-07-22T00:28:58;27.02;;;16.52;;
33266;SDS011;19638;49.080;11.896;2022-07-22T00:33:03;24.80;;;17.10;;
33266;SDS011;19638;49.080;11.896;2022-07-22T00:37:06;24.25;;;15.02;;
33266;SDS011;19638;49.080;11.896;2022-07-22T00:41:10;26.90;;;18.40;;
33266;SDS011;19638;49.080;11.896;2022-07-22T00:45:13;23.60;;;17.38;;
33266;SDS011;19638;49.080;11.896;2022-07-22T00:49:17;26.02;;;16.70;;
33266;SDS011;19638;49.080;11.896;2022-07-22T00:53:21;25.58;;;18.63;;
33266;SDS011;19638;49.080;11.896;2022-07-22T00:57:24;35.30;;;19.30;;
33266;SDS011;19638;49.080;11.896;2022-07-22T01:01:27;25.80;;;17.85;;
33266;SDS011;19638;49.080;11.896;2022-07-22T01:05:32;23.30;;;17.58;;
33266;SDS011;19638;49.080;11.896;2022-07-22T01:09:36;27.42;;;17.00;;
33266;SDS011;19638;49.080;11.896;2022-07-22T01:13:39;25.10;;;17.25;;
33266;SDS011;19638;49.080;11.896;2022-07-22T01:17:42;27.85;;;18.75;;
33266;SDS011;19638;49.080;11.896;2022-07-22T01:21:47;36.40;;;17.40;;
33266;SDS011;19638;49.080;11.896;2022-07-22T01:25:50;27.08;;;17.50;;
33266;SDS011;19638;49.080;11.896;2022-07-22T01:29:53;30.65;;;18.60;;
33266;SDS011;19638;49.080;11.896;2022-07-22T01:33:56;30.15;;;18.55;;
33266;SDS011;19638;49.080;11.896;2022-07-22T01:38:02;27.42;;;17.92;;
33266;SDS011;19638;49.080;11.896;2022-07-22T01:42:05;30.05;;;18.85;;
33266;SDS011;19638;49.080;11.896;2022-07-22T01:46:09;28.83;;;17.95;;
33266;SDS011;19638;49.080;11.896;2022-07-22T01:50:12;25.80;;;18.38;;
33266;SDS011;19638;49.080;11.896;2022-07-22T01:54:16;29.23;;;17.17;;
33266;SDS011;19638;49.080;11.896;2022-07-22T01:58:20;27.58;;;19.52;;
33266;SDS011;19638;49.080;11.896;2022-07-22T02:02:23;37.13;;;17.83;;
33266;SDS011;19638;49.080;11.896;2022-07-22T02:06:26;34.25;;;19.75;;
33266;SDS011;19638;49.080;11.896;2022-07-22T02:10:32;36.50;;;21.15;;
33266;SDS011;19638;49.080;11.896;2022-07-22T02:14:36;34.80;;;19.67;;
33266;SDS011;19638;49.080;11.896;2022-07-22T02:18:39;37.55;;;19.65;;
33266;SDS011;19638;49.080;11.896;2022-07-22T02:22:42;29.48;;;19.00;;
33266;SDS011;19638;49.080;11.896;2022-07-22T02:26:47;28.05;;;19.20;;
33266;SDS011;19638;49.080;11.896;2022-07-22T02:30:50;30.45;;;19.55;;
33266;SDS011;19638;49.080;11.896;2022-07-22T02:34:53;32.03;;;19.83;;
33266;SDS011;19638;49.080;11.896;2022-07-22T02:38:58;33.47;;;18.98;;
33266;SDS011;19638;49.080;11.896;2022-07-22T02:43:03;39.35;;;19.73;;
33266;SDS011;19638;49.080;11.896;2022-07-22T02:47:07;33.58;;;18.35;;
33266;SDS011;19638;49.080;11.896;2022-07-22T02:51:10;42.03;;;20.17;;
33266;SDS011;19638;49.080;11.896;2022-07-22T02:55:13;40.78;;;21.05;;
33266;SDS011;19638;49.080;11.896;2022-07-22T02:59:18;35.72;;;18.63;;
33266;SDS011;19638;49.080;11.896;2022-07-22T03:03:21;40.15;;;20.00;;
33266;SDS011;19638;49.080;11.896;2022-07-22T03:07:25;30.80;;;19.42;;
33266;SDS011;19638;49.080;11.896;2022-07-22T03:11:31;36.05;;;20.05;;
33266;SDS011;19638;49.080;11.896;2022-07-22T03:15:36;31.88;;;19.83;;
33266;SDS011;19638;49.080;11.896;2022-07-22T03:19:39;27.35;;;18.73;;
33266;SDS011;19638;49.080;11.896;2022-07-22T03:23:42;41.20;;;21.25;;
33266;SDS011;19638;49.080;11.896;2022-07-22T03:27:46;42.58;;;20.23;;
33266;SDS011;19638;49.080;11.896;2022-07-22T03:31:50;38.25;;;20.00;;
33266;SDS011;19638;49.080;11.896;2022-07-22T03:35:54;31.33;;;19.50;;
33266;SDS011;19638;49.080;11.896;2022-07-22T03:39:57;57.05;;;16.65;;
33266;SDS011;19638;49.080;11.896;2022-07-22T03:48:48;31.63;;;20.58;;
33266;SDS011;19638;49.080;11.896;2022-07-22T03:52:51;44.25;;;21.95;;
33266;SDS011;19638;49.080;11.896;2022-07-22T03:56:54;31.02;;;19.55;;
33266;SDS011;19638;49.080;11.896;2022-07-22T04:00:57;28.98;;;18.30;;
33266;SDS011;19638;49.080;11.896;2022-07-22T04:05:02;45.72;;;22.85;;
33266;SDS011;19638;49.080;11.896;2022-07-22T04:09:06;40.35;;;21.45;;
33266;SDS011;19638;49.080;11.896;2022-07-22T04:13:10;31.70;;;19.27;;
33266;SDS011;19638;49.080;11.896;2022-07-22T04:17:13;39.85;;;22.17;;
33266;SDS011;19638;49.080;11.896;2022-07-22T04:21:18;33.90;;;19.45;;
33266;SDS011;19638;49.080;11.896;2022-07-22T04:25:21;36.10;;;20.02;;
33266;SDS011;19638;49.080;11.896;2022-07-22T04:29:24;32.35;;;19.58;;
33266;SDS011;19638;49.080;11.896;2022-07-22T04:33:27;44.97;;;24.15;;
33266;SDS011;19638;49.080;11.896;2022-07-22T04:37:32;26.85;;;18.20;;
33266;SDS011;19638;49.080;11.896;2022-07-22T04:41:36;34.95;;;21.10;;
33266;SDS011;19638;49.080;11.896;2022-07-22T04:45:39;27.15;;;18.88;;
33266;SDS011;19638;49.080;11.896;2022-07-22T04:49:42;26.17;;;17.30;;
33266;SDS011;19638;49.080;11.896;2022-07-22T04:53:47;27.55;;;18.45;;
33266;SDS011;19638;49.080;11.896;2022-07-22T04:57:50;24.80;;;17.90;;
33266;SDS011;19638;49.080;11.896;2022-07-22T05:01:54;27.85;;;19.42;;
33266;SDS011;19638;49.080;11.896;2022-07-22T05:05:57;28.33;;;21.15;;
33266;SDS011;19638;49.080;11.896;2022-07-22T05:10:02;28.48;;;18.55;;
33266;SDS011;19638;49.080;11.896;2022-07-22T05:14:05;33.72;;;20.88;;
33266;SDS011;19638;49.080;11.896;2022-07-22T05:18:08;31.52;;;19.15;;
33266;SDS011;19638;49.080;11.896;2022-07-22T05:22:12;31.65;;;19.00;;
33266;SDS011;19638;49.080;11.896;2022-07-22T05:26:16;26.05;;;19.10;;
33266;SDS011;19638;49.080;11.896;2022-07-22T05:30:20;26.90;;;17.40;;
33266;SDS011;19638;49.080;11.896;2022-07-22T05:34:25;29.88;;;20.42;;
33266;SDS011;19638;49.080;11.896;2022-07-22T05:38:31;27.85;;;19.85;;
33266;SDS011;19638;49.080;11.896;2022-07-22T05:42:36;28.38;;;18.98;;
33266;SDS011;19638;49.080;11.896;2022-07-22T05:46:39;29.67;;;19.77;;
33266;SDS011;19638;49.080;11.896;2022-07-22T05:50:42;30.20;;;19.65;;
33266;SDS011;19638;49.080;11.896;2022-07-22T05:54:46;30.52;;;21.38;;
33266;SDS011;19638;49.080;11.896;2022-07-22T05:58:50;31.10;;;19.88;;
33266;SDS011;19638;49.080;11.896;2022-07-22T06:02:54;28.73;;;19.33;;
33266;SDS011;19638;49.080;11.896;2022-07-22T06:06:58;27.92;;;19.25;;
33266;SDS011;19638;49.080;11.896;2022-07-22T06:11:01;29.50;;;19.48;;
33266;SDS011;19638;49.080;11.896;2022-07-22T06:15:06;28.92;;;19.90;;
33266;SDS011;19638;49.080;11.896;2022-07-22T06:19:10;27.90;;;19.50;;
33266;SDS011;19638;49.080;11.896;2022-07-22T06:23:13;24.85;;;19.75;;
33266;SDS011;19638;49.080;11.896;2022-07-22T06:27:19;27.92;;;20.15;;
33266;SDS011;19638;49.080;11.896;2022-07-22T06:31:24;26.67;;;18.95;;
33266;SDS011;19638;49.080;11.896;2022-07-22T06:35:28;28.17;;;19.70;;
33266;SDS011;19638;49.080;11.896;2022-07-22T06:39:31;22.90;;;16.20;;
33266;SDS011;19638;49.080;11.896;2022-07-22T06:43:40;26.42;;;18.08;;
33266;SDS011;19638;49.080;11.896;2022-07-22T06:47:47;25.27;;;18.42;;
33266;SDS011;19638;49.080;11.896;2022-07-22T06:51:52;27.05;;;18.90;;
33266;SDS011;19638;49.080;11.896;2022-07-22T06:55:55;26.83;;;19.73;;
33266;SDS011;19638;49.080;11.896;2022-07-22T07:00:07;27.52;;;19.42;;
33266;SDS011;19638;49.080;11.896;2022-07-22T07:04:12;22.38;;;18.20;;
33266;SDS011;19638;49.080;11.896;2022-07-22T07:08:16;23.75;;;17.85;;
33266;SDS011;19638;49.080;11.896;2022-07-22T07:12:20;22.65;;;16.95;;
33266;SDS011;19638;49.080;11.896;2022-07-22T07:16:23;19.92;;;13.70;;
33266;SDS011;19638;49.080;11.896;2022-07-22T07:20:28;15.63;;;13.02;;
33266;SDS011;19638;49.080;11.896;2022-07-22T07:24:31;14.38;;;12.02;;
33266;SDS011;19638;49.080;11.896;2022-07-22T07:28:35;12.35;;;9.45;;
33266;SDS011;19638;49.080;11.896;2022-07-22T07:32:42;12.18;;;9.65;;
33266;SDS011;19638;49.080;11.896;2022-07-22T07:36:46;15.18;;;7.18;;
33266;SDS011;19638;49.080;11.896;2022-07-22T07:40:50;10.10;;;8.20;;
33266;SDS011;19638;49.080;11.896;2022-07-22T07:44:53;12.98;;;8.82;;
33266;SDS011;19638;49.080;11.896;2022-07-22T07:48:57;11.45;;;7.80;;
33266;SDS011;19638;49.080;11.896;2022-07-22T07:53:03;10.38;;;7.93;;
33266;SDS011;19638;49.080;11.896;2022-07-22T07:57:09;12.93;;;8.85;;
33266;SDS011;19638;49.080;11.896;2022-07-22T08:01:14;10.10;;;9.02;;
33266;SDS011;19638;49.080;11.896;2022-07-22T08:05:17;12.38;;;9.15;;
33266;SDS011;19638;49.080;11.896;2022-07-22T08:09:25;12.18;;;8.57;;
33266;SDS011;19638;49.080;11.896;2022-07-22T08:13:29;11.65;;;9.00;;
33266;SDS011;19638;49.080;11.896;2022-07-22T08:17:32;11.40;;;8.45;;
33266;SDS011;19638;49.080;11.896;2022-07-22T08:21:36;9.90;;;8.90;;
33266;SDS011;19638;49.080;11.896;2022-07-22T08:25:41;10.55;;;8.07;;
33266;SDS011;19638;49.080;11.896;2022-07-22T08:29:45;12.90;;;8.00;;
33266;SDS011;19638;49.080;11.896;2022-07-22T08:33:49;7.80;;;7.00;;
33266;SDS011;19638;49.080;11.896;2022-07-22T08:37:59;8.13;;;7.03;;
33266;SDS011;19638;49.080;11.896;2022-07-22T08:42:04;10.13;;;6.80;;
33266;SDS011;19638;49.080;11.896;2022-07-22T08:46:08;10.10;;;6.90;;
33266;SDS011;19638;49.080;11.896;2022-07-22T08:50:12;6.75;;;5.85;;
33266;SDS011;19638;49.080;11.896;2022-07-22T08:54:15;6.53;;;5.75;;
33266;SDS011;19638;49.080;11.896;2022-07-22T08:58:20;7.47;;;5.85;;
33266;SDS011;19638;49.080;11.896;2022-07-22T09:02:36;7.90;;;5.70;;
33266;SDS011;19638;49.080;11.896;2022-07-22T09:06:40;5.90;;;5.30;;
33266;SDS011;19638;49.080;11.896;2022-07-22T09:10:50;9.30;;;6.45;;
33266;SDS011;19638;49.080;11.896;2022-07-22T09:14:56;7.20;;;6.47;;
33266;SDS011;19638;49.080;11.896;2022-07-22T09:19:00;7.78;;;6.97;;
33266;SDS011;19638;49.080;11.896;2022-07-22T09:23:08;8.60;;;7.68;;
33266;SDS011;19638;49.080;11.896;2022-07-22T09:27:17;10.73;;;7.68;;
33266;SDS011;19638;49.080;11.896;2022-07-22T09:31:28;8.43;;;6.97;;
33266;SDS011;19638;49.080;11.896;2022-07-22T09:35:35;8.20;;;6.93;;
33266;SDS011;19638;49.080;11.896;2022-07-22T09:39:38;7.55;;;6.78;;
33266;SDS011;19638;49.080;11.896;2022-07-22T09:43:42;10.98;;;7.60;;
33266;SDS011;19638;49.080;11.896;2022-07-22T09:47:47;7.40;;;6.70;;
33266;SDS011;19638;49.080;11.896;2022-07-22T09:51:52;9.63;;;7.28;;
33266;SDS011;19638;49.080;11.896;2022-07-22T09:55:55;7.93;;;7.18;;
33266;SDS011;19638;49.080;11.896;2022-07-22T09:59:59;8.68;;;6.95;;
33266;SDS011;19638;49.080;11.896;2022-07-22T10:04:04;8.90;;;7.10;;
33266;SDS011;19638;49.080;11.896;2022-07-22T10:08:09;7.93;;;7.03;;
33266;SDS011;19638;49.080;11.896;2022-07-22T10:12:12;7.93;;;7.13;;
33266;SDS011;19638;49.080;11.896;2022-07-22T10:16:17;8.25;;;7.38;;
33266;SDS011;19638;49.080;11.896;2022-07-22T10:20:23;8.90;;;6.97;;
33266;SDS011;19638;49.080;11.896;2022-07-22T10:24:27;10.23;;;7.82;;
33266;SDS011;19638;49.080;11.896;2022-07-22T10:28:31;13.27;;;7.93;;
33266;SDS011;19638;49.080;11.896;2022-07-22T10:32:35;9.75;;;7.70;;
33266;SDS011;19638;49.080;11.896;2022-07-22T10:36:40;7.70;;;6.95;;
33266;SDS011;19638;49.080;11.896;2022-07-22T10:40:48;9.77;;;7.50;;
33266;SDS011;19638;49.080;11.896;2022-07-22T10:44:53;7.72;;;6.95;;
33266;SDS011;19638;49.080;11.896;2022-07-22T10:48:59;7.45;;;6.75;;
33266;SDS011;19638;49.080;11.896;2022-07-22T10:53:07;11.95;;;7.75;;
33266;SDS011;19638;49.080;11.896;2022-07-22T10:57:15;9.65;;;7.30;;
33266;SDS011;19638;49.080;11.896;2022-07-22T11:01:38;7.70;;;6.88;;
33266;SDS011;19638;49.080;11.896;2022-07-22T11:05:44;7.28;;;6.57;;
33266;SDS011;19638;49.080;11.896;2022-07-22T11:09:48;8.88;;;6.97;;
33266;SDS011;19638;49.080;11.896;2022-07-22T11:13:52;7.50;;;6.43;;
33266;SDS011;19638;49.080;11.896;2022-07-22T11:17:56;9.05;;;6.32;;
33266;SDS011;19638;49.080;11.896;2022-07-22T11:21:59;8.30;;;7.38;;
33266;SDS011;19638;49.080;11.896;2022-07-22T11:26:08;12.52;;;6.90;;
33266;SDS011;19638;49.080;11.896;2022-07-22T11:30:13;7.28;;;6.55;;
33266;SDS011;19638;49.080;11.896;2022-07-22T11:34:17;7.95;;;7.13;;
33266;SDS011;19638;49.080;11.896;2022-07-22T11:38:21;10.90;;;6.72;;
33266;SDS011;19638;49.080;11.896;2022-07-22T11:42:27;9.43;;;6.93;;
33266;SDS011;19638;49.080;11.896;2022-07-22T11:46:34;7.40;;;6.65;;
33266;SDS011;19638;49.080;11.896;2022-07-22T11:50:38;10.98;;;6.88;;
33266;SDS011;19638;49.080;11.896;2022-07-22T11:54:43;7.82;;;6.80;;
33266;SDS011;19638;49.080;11.896;2022-07-22T11:58:49;8.52;;;7.15;;
33266;SDS011;19638;49.080;11.896;2022-07-22T12:02:55;6.55;;;6.05;;
33266;SDS011;19638;49.080;11.896;2022-07-22T12:06:59;7.10;;;6.18;;
33266;SDS011;19638;49.080;11.896;2022-07-22T12:11:03;8.30;;;6.30;;
33266;SDS011;19638;49.080;11.896;2022-07-22T12:15:09;6.47;;;5.85;;
33266;SDS011;19638;49.080;11.896;2022-07-22T12:19:32;6.35;;;5.60;;
33266;SDS011;19638;49.080;11.896;2022-07-22T12:23:36;8.52;;;5.60;;
33266;SDS011;19638;49.080;11.896;2022-07-22T12:27:39;6.72;;;5.95;;
33266;SDS011;19638;49.080;11.896;2022-07-22T12:31:44;7.00;;;5.55;;
33266;SDS011;19638;49.080;11.896;2022-07-22T12:35:58;6.20;;;5.63;;
33266;SDS011;19638;49.080;11.896;2022-07-22T12:40:03;6.03;;;5.53;;
33266;SDS011;19638;49.080;11.896;2022-07-22T12:44:07;6.50;;;5.90;;
33266;SDS011;19638;49.080;11.896;2022-07-22T12:48:19;7.40;;;5.80;;
33266;SDS011;19638;49.080;11.896;2022-07-22T12:52:30;5.90;;;5.43;;
33266;SDS011;19638;49.080;11.896;2022-07-22T12:56:33;6.15;;;5.57;;
33266;SDS011;19638;49.080;11.896;2022-07-22T13:00:38;7.28;;;6.32;;
33266;SDS011;19638;49.080;11.896;2022-07-22T13:04:44;6.35;;;5.75;;
33266;SDS011;19638;49.080;11.896;2022-07-22T13:08:47;7.93;;;6.25;;
33266;SDS011;19638;49.080;11.896;2022-07-22T13:12:51;7.28;;;6.43;;
33266;SDS011;19638;49.080;11.896;2022-07-22T13:16:55;8.13;;;5.95;;
33266;SDS011;19638;49.080;11.896;2022-07-22T13:20:59;8.23;;;5.90;;
33266;SDS011;19638;49.080;11.896;2022-07-22T13:25:03;6.90;;;5.55;;
33266;SDS011;19638;49.080;11.896;2022-07-22T13:29:07;7.53;;;5.95;;
33266;SDS011;19638;49.080;11.896;2022-07-22T13:33:11;5.90;;;5.40;;
33266;SDS011;19638;49.080;11.896;2022-07-22T13:37:15;6.85;;;6.03;;
33266;SDS011;19638;49.080;11.896;2022-07-22T13:41:19;6.97;;;6.15;;
33266;SDS011;19638;49.080;11.896;2022-07-22T13:45:23;6.43;;;5.72;;
33266;SDS011;19638;49.080;11.896;2022-07-22T13:49:26;8.00;;;5.47;;
33266;SDS011;19638;49.080;11.896;2022-07-22T13:53:34;6.47;;;5.85;;
33266;SDS011;19638;49.080;11.896;2022-07-22T13:57:38;5.72;;;5.13;;
33266;SDS011;19638;49.080;11.896;2022-07-22T14:01:43;6.47;;;5.28;;
33266;SDS011;19638;49.080;11.896;2022-07-22T14:05:46;6.05;;;5.13;;
33266;SDS011;19638;49.080;11.896;2022-07-22T14:09:51;7.13;;;6.03;;
33266;SDS011;19638;49.080;11.896;2022-07-22T14:13:54;5.97;;;5.43;;
33266;SDS011;19638;49.080;11.896;2022-07-22T14:17:58;6.10;;;5.43;;
33266;SDS011;19638;49.080;11.896;2022-07-22T14:22:01;8.57;;;5.43;;
33266;SDS011;19638;49.080;11.896;2022-07-22T14:26:07;6.53;;;5.63;;
33266;SDS011;19638;49.080;11.896;2022-07-22T14:30:10;7.18;;;5.22;;
33266;SDS011;19638;49.080;11.896;2022-07-22T14:34:14;5.70;;;5.10;;
33266;SDS011;19638;49.080;11.896;2022-07-22T14:38:20;8.38;;;5.50;;
33266;SDS011;19638;49.080;11.896;2022-07-22T14:42:25;7.10;;;5.15;;
33266;SDS011;19638;49.080;11.896;2022-07-22T14:46:28;5.82;;;5.03;;
33266;SDS011;19638;49.080;11.896;2022-07-22T14:50:32;6.15;;;5.60;;
33266;SDS011;19638;49.080;11.896;2022-07-22T14:54:35;5.97;;;5.20;;
33266;SDS011;19638;49.080;11.896;2022-07-22T14:58:40;5.75;;;5.18;;
33266;SDS011;19638;49.080;11.896;2022-07-22T15:02:43;5.30;;;4.80;;
33266;SDS011;19638;49.080;11.896;2022-07-22T15:06:46;5.43;;;4.70;;
33266;SDS011;19638;49.080;11.896;2022-07-22T15:10:50;6.20;;;5.65;;
33266;SDS011;19638;49.080;11.896;2022-07-22T15:14:54;5.50;;;5.00;;
33266;SDS011;19638;49.080;11.896;2022-07-22T15:18:57;5.72;;;5.13;;
33266;SDS011;19638;49.080;11.896;2022-07-22T15:23:01;5.75;;;5.22;;
33266;SDS011;19638;49.080;11.896;2022-07-22T15:27:04;5.90;;;5.30;;
33266;SDS011;19638;49.080;11.896;2022-07-22T15:31:09;5.82;;;5.30;;
33266;SDS011;19638;49.080;11.896;2022-07-22T15:35:12;6.25;;;5.63;;
33266;SDS011;19638;49.080;11.896;2022-07-22T15:39:16;5.20;;;4.78;;
33266;SDS011;19638;49.080;11.896;2022-07-22T15:43:19;6.78;;;6.07;;
33266;SDS011;19638;49.080;11.896;2022-07-22T15:47:25;6.40;;;5.60;;
33266;SDS011;19638;49.080;11.896;2022-07-22T15:51:28;5.93;;;5.43;;
33266;SDS011;19638;49.080;11.896;2022-07-22T15:55:31;5.90;;;5.40;;
33266;SDS011;19638;49.080;11.896;2022-07-22T15:59:34;5.78;;;5.28;;
33266;SDS011;19638;49.080;11.896;2022-07-22T16:03:40;7.05;;;5.53;;
33266;SDS011;19638;49.080;11.896;2022-07-22T16:07:43;7.10;;;5.38;;
33266;SDS011;19638;49.080;11.896;2022-07-22T16:11:47;8.43;;;5.80;;
33266;SDS011;19638;49.080;11.896;2022-07-22T16:15:50;6.75;;;5.78;;
33266;SDS011;19638;49.080;11.896;2022-07-22T16:19:55;7.40;;;6.03;;
33266;SDS011;19638;49.080;11.896;2022-07-22T16:23:58;6.72;;;5.93;;
33266;SDS011;19638;49.080;11.896;2022-07-22T16:28:02;6.90;;;5.65;;
33266;SDS011;19638;49.080;11.896;2022-07-22T16:32:06;8.57;;;6.03;;
33266;SDS011;19638;49.080;11.896;2022-07-22T16:36:11;17.00;;;5.70;;
33266;SDS011;19638;49.080;11.896;2022-07-22T16:40:14;10.15;;;5.60;;
33266;SDS011;19638;49.080;11.896;2022-07-22T16:44:17;6.72;;;5.63;;
33266;SDS011;19638;49.080;11.896;2022-07-22T16:48:21;5.55;;;5.15;;
33266;SDS011;19638;49.080;11.896;2022-07-22T16:52:25;5.53;;;5.05;;
33266;SDS011;19638;49.080;11.896;2022-07-22T16:56:29;5.70;;;5.10;;
33266;SDS011;19638;49.080;11.896;2022-07-22T17:00:32;10.68;;;5.47;;
33266;SDS011;19638;49.080;11.896;2022-07-22T17:04:35;5.45;;;5.05;;
33266;SDS011;19638;49.080;11.896;2022-07-22T17:08:40;5.40;;;5.00;;
33266;SDS011;19638;49.080;11.896;2022-07-22T17:12:43;6.72;;;5.57;;
33266;SDS011;19638;49.080;11.896;2022-07-22T17:17:05;6.22;;;5.43;;
33266;SDS011;19638;49.080;11.896;2022-07-22T17:21:08;6.45;;;5.15;;
33266;SDS011;19638;49.080;11.896;2022-07-22T17:25:14;7.55;;;5.57;;
33266;SDS011;19638;49.080;11.896;2022-07-22T17:29:18;7.25;;;5.40;;
33266;SDS011;19638;49.080;11.896;2022-07-22T17:33:21;8.43;;;5.53;;
33266;SDS011;19638;49.080;11.896;2022-07-22T17:37:28;8.23;;;5.03;;
33266;SDS011;19638;49.080;11.896;2022-07-22T17:41:32;5.55;;;5.05;;
33266;SDS011;19638;49.080;11.896;2022-07-22T17:45:36;5.68;;;5.18;;
33266;SDS011;19638;49.080;11.896;2022-07-22T17:49:39;8.93;;;6.20;;
33266;SDS011;19638;49.080;11.896;2022-07-22T17:53:42;7.75;;;6.20;;
33266;SDS011;19638;49.080;11.896;2022-07-22T17:57:47;9.35;;;6.45;;
33266;SDS011;19638;49.080;11.896;2022-07-22T18:01:51;8.90;;;6.65;;
33266;SDS011;19638;49.080;11.896;2022-07-22T18:05:54;10.18;;;6.30;;
33266;SDS011;19638;49.080;11.896;2022-07-22T18:09:59;8.85;;;6.72;;
33266;SDS011;19638;49.080;11.896;2022-07-22T18:14:04;7.70;;;6.68;;
33266;SDS011;19638;49.080;11.896;2022-07-22T18:18:07;11.32;;;7.32;;
33266;SDS011;19638;49.080;11.896;2022-07-22T18:22:10;9.00;;;7.20;;
33266;SDS011;19638;49.080;11.896;2022-07-22T18:26:13;7.80;;;7.00;;
33266;SDS011;19638;49.080;11.896;2022-07-22T18:30:19;12.75;;;7.53;;
33266;SDS011;19638;49.080;11.896;2022-07-22T18:34:22;7.82;;;7.05;;
33266;SDS011;19638;49.080;11.896;2022-07-22T18:38:26;11.48;;;7.18;;
33266;SDS011;19638;49.080;11.896;2022-07-22T18:42:29;9.52;;;7.97;;
33266;SDS011;19638;49.080;11.896;2022-07-22T18:46:34;49.92;;;11.55;;
33266;SDS011;19638;49.080;11.896;2022-07-22T18:50:37;14.15;;;7.43;;
33266;SDS011;19638;49.080;11.896;2022-07-22T18:54:41;14.68;;;8.30;;
33266;SDS011;19638;49.080;11.896;2022-07-22T18:58:44;14.40;;;7.97;;
33266;SDS011;19638;49.080;11.896;2022-07-22T19:02:48;35.10;;;11.27;;
33266;SDS011;19638;49.080;11.896;2022-07-22T19:06:51;21.48;;;9.23;;
33266;SDS011;19638;49.080;11.896;2022-07-22T19:10:55;32.40;;;10.38;;
33266;SDS011;19638;49.080;11.896;2022-07-22T19:14:58;99.50;;;15.00;;
33266;SDS011;19638;49.080;11.896;2022-07-22T19:19:03;93.53;;;16.35;;
33266;SDS011;19638;49.080;11.896;2022-07-22T19:23:06;76.20;;;15.27;;
33266;SDS011;19638;49.080;11.896;2022-07-22T19:27:09;27.20;;;10.73;;
33266;SDS011;19638;49.080;11.896;2022-07-22T19:31:13;46.17;;;11.88;;
33266;SDS011;19638;49.080;11.896;2022-07-22T19:35:17;36.83;;;10.82;;
33266;SDS011;19638;49.080;11.896;2022-07-22T19:39:21;24.60;;;9.85;;
33266;SDS011;19638;49.080;11.896;2022-07-22T19:43:24;40.47;;;11.57;;
33266;SDS011;19638;49.080;11.896;2022-07-22T19:47:28;30.85;;;10.93;;
33266;SDS011;19638;49.080;11.896;2022-07-22T19:51:33;30.48;;;11.25;;
33266;SDS011;19638;49.080;11.896;2022-07-22T19:55:36;28.20;;;10.85;;
33266;SDS011;19638;49.080;11.896;2022-07-22T19:59:39;32.63;;;10.60;;
33266;SDS011;19638;49.080;11.896;2022-07-22T20:03:42;36.45;;;9.90;;
33266;SDS011;19638;49.080;11.896;2022-07-22T20:07:47;28.30;;;10.68;;
33266;SDS011;19638;49.080;11.896;2022-07-22T20:11:50;38.28;;;11.63;;
33266;SDS011;19638;49.080;11.896;2022-07-22T20:15:53;31.50;;;12.05;;
33266;SDS011;19638;49.080;11.896;2022-07-22T20:19:56;21.23;;;10.05;;
33266;SDS011;19638;49.080;11.896;2022-07-22T20:24:01;64.03;;;12.73;;
33266;SDS011;19638;49.080;11.896;2022-07-22T20:28:04;40.03;;;11.95;;
33266;SDS011;19638;49.080;11.896;2022-07-22T20:32:08;37.97;;;12.23;;
33266;SDS011;19638;49.080;11.896;2022-07-22T20:36:11;26.35;;;10.18;;
33266;SDS011;19638;49.080;11.896;2022-07-22T20:40:15;26.27;;;10.20;;
33266;SDS011;19638;49.080;11.896;2022-07-22T20:44:19;16.83;;;9.75;;
33266;SDS011;19638;49.080;11.896;2022-07-22T20:48:22;15.00;;;9.30;;
33266;SDS011;19638;49.080;11.896;2022-07-22T20:52:25;18.05;;;10.60;;
33266;SDS011;19638;49.080;11.896;2022-07-22T20:56:30;12.43;;;9.98;;
33266;SDS011;19638;49.080;11.896;2022-07-22T21:00:33;16.42;;;9.77;;
33266;SDS011;19638;49.080;11.896;2022-07-22T21:04:36;13.13;;;9.88;;
33266;SDS011;19638;49.080;11.896;2022-07-22T21:08:40;18.52;;;10.15;;
33266;SDS011;19638;49.080;11.896;2022-07-22T21:12:44;13.35;;;9.27;;
33266;SDS011;19638;49.080;11.896;2022-07-22T21:16:48;11.18;;;9.65;;
33266;SDS011;19638;49.080;11.896;2022-07-22T21:20:51;15.48;;;10.20;;
33266;SDS011;19638;49.080;11.896;2022-07-22T21:24:54;10.70;;;9.57;;
33266;SDS011;19638;49.080;11.896;2022-07-22T21:28:59;10.55;;;8.48;;
33266;SDS011;19638;49.080;11.896;2022-07-22T21:33:03;10.48;;;8.43;;
33266;SDS011;19638;49.080;11.896;2022-07-22T21:37:07;12.70;;;9.68;;
33266;SDS011;19638;49.080;11.896;2022-07-22T21:41:11;15.38;;;8.52;;
33266;SDS011;19638;49.080;11.896;2022-07-22T21:45:16;13.98;;;9.15;;
33266;SDS011;19638;49.080;11.896;2022-07-22T21:49:19;13.07;;;8.77;;
33266;SDS011;19638;49.080;11.896;2022-07-22T21:53:22;14.23;;;9.20;;
33266;SDS011;19638;49.080;11.896;2022-07-22T21:57:25;13.45;;;9.18;;
33266;SDS011;19638;49.080;11.896;2022-07-22T22:01:30;14.70;;;8.98;;
33266;SDS011;19638;49.080;11.896;2022-07-22T22:05:34;22.02;;;8.98;;
33266;SDS011;19638;49.080;11.896;2022-07-22T22:09:37;14.07;;;9.10;;
33266;SDS011;19638;49.080;11.896;2022-07-22T22:13:40;14.75;;;9.15;;
33266;SDS011;19638;49.080;11.896;2022-07-22T22:17:45;14.73;;;8.77;;
33266;SDS011;19638;49.080;11.896;2022-07-22T22:21:48;15.40;;;9.55;;
33266;SDS011;19638;49.080;11.896;2022-07-22T22:25:51;19.75;;;9.52;;
33266;SDS011;19638;49.080;11.896;2022-07-22T22:29:54;16.90;;;10.07;;
33266;SDS011;19638;49.080;11.896;2022-07-22T22:33:59;21.88;;;9.90;;
33266;SDS011;19638;49.080;11.896;2022-07-22T22:38:02;14.13;;;9.77;;
33266;SDS011;19638;49.080;11.896;2022-07-22T22:42:05;18.98;;;10.45;;
33266;SDS011;19638;49.080;11.896;2022-07-22T22:46:08;14.30;;;9.90;;
33266;SDS011;19638;49.080;11.896;2022-07-22T22:50:13;14.85;;;10.32;;
33266;SDS011;19638;49.080;11.896;2022-07-22T22:54:16;18.35;;;9.48;;
33266;SDS011;19638;49.080;11.896;2022-07-22T22:58:19;15.70;;;10.13;;
33266;SDS011;19638;49.080;11.896;2022-07-22T23:02:24;16.00;;;10.10;;
33266;SDS011;19638;49.080;11.896;2022-07-22T23:06:33;15.85;;;9.80;;
33266;SDS011;19638;49.080;11.896;2022-07-22T23:10:36;16.88;;;11.00;;
33266;SDS011;19638;49.080;11.896;2022-07-22T23:14:39;13.50;;;10.95;;
33266;SDS011;19638;49.080;11.896;2022-07-22T23:18:42;17.75;;;10.50;;
33266;SDS011;19638;49.080;11.896;2022-07-22T23:22:48;14.10;;;9.75;;
33266;SDS011;19638;49.080;11.896;2022-07-22T23:26:51;18.75;;;10.30;;
33266;SDS011;19638;49.080;11.896;2022-07-22T23:30:55;11.30;;;9.27;;
33266;SDS011;19638;49.080;11.896;2022-07-22T23:34:58;15.98;;;9.32;;
33266;SDS011;19638;49.080;11.896;2022-07-22T23:39:03;12.88;;;9.95;;
33266;SDS011;19638;49.080;11.896;2022-07-22T23:43:07;15.57;;;10.88;;
33266;SDS011;19638;49.080;11.896;2022-07-22T23:47:10;15.85;;;11.18;;
33266;SDS011;19638;49.080;11.896;2022-07-22T23:51:13;19.83;;;11.20;;